Terminal Aerodrome Forecast
Issued by NWS

Home | Current Version | Previous Version | Text Only | Print | Product List | Glossary On
Versions: 1 2 3 4 5 6 7 8 9 10 11 12 13 14 15 16 17 18 19
000
FTUS45 KTFX 281100
TAFLWT
TAF
KLWT 281121Z 2812/2912 25016KT P6SM BKN090
     FM281900 24022G36KT P6SM SCT060 BKN090
     FM290200 30012G22KT P6SM VCSH SCT040 OVC060
     FM290600 34014KT P6SM VCSH OVC040 PROB30 2907/2912 -SN OVC025=

USA.gov is the U.S. government's official web portal to all federal, state and local government web resources and services.